Time;durP1;ratioP1;P1;durP2;ratioP2;P2;SDS_P1;SDS_P2;PMS_P1;PMS_P2;Temp;Humidity;BMP_temperature;BMP_pressure;BME280_temperature;BME280_humidity;BME280_pressure;Samples;Min_cycle;Max_cycle;Signal;HPM_P1;HPM_P2
2022/09/30 00:00:07;;;;;;;3.95;3.55;;;10.40;99.90;;;;;;4044637;29;20374;-62
2022/09/30 00:02:09;;;;;;;6.13;4.25;;;10.40;99.90;;;;;;4048727;29;20064;-62
2022/09/30 00:04:15;;;;;;;6.28;3.60;;;10.40;99.90;;;;;;4049327;29;20033;-62
2022/09/30 00:06:16;;;;;;;8.63;3.88;;;10.40;99.90;;;;;;4043833;29;20127;-62
2022/09/30 00:08:17;;;;;;;6.20;3.95;;;10.40;99.90;;;;;;4045212;29;20029;-62
2022/09/30 00:10:17;;;;;;;5.75;4.00;;;10.40;99.90;;;;;;4044842;29;20084;-62
2022/09/30 00:12:18;;;;;;;5.38;3.63;;;10.40;99.90;;;;;;4045155;29;20091;-62
2022/09/30 00:14:21;;;;;;;4.22;3.50;;;10.40;99.90;;;;;;4041013;29;20033;-62
2022/09/30 00:16:25;;;;;;;5.65;3.80;;;10.30;99.90;;;;;;4044158;29;20184;-64
2022/09/30 00:18:27;;;;;;;4.97;3.40;;;10.30;99.90;;;;;;4044679;29;20396;-62
2022/09/30 00:20:27;;;;;;;6.93;3.92;;;10.30;99.90;;;;;;4041559;29;20036;-62
2022/09/30 00:22:28;;;;;;;6.78;4.07;;;10.20;99.90;;;;;;4058621;29;20388;-62
2022/09/30 00:24:28;;;;;;;6.32;3.47;;;10.20;99.90;;;;;;4040298;29;20452;-62
2022/09/30 00:26:30;;;;;;;6.07;4.43;;;10.20;99.90;;;;;;4038434;29;20052;-62
2022/09/30 00:28:31;;;;;;;5.63;3.83;;;10.20;99.90;;;;;;4041939;29;20086;-62
2022/09/30 00:30:32;;;;;;;5.90;4.28;;;10.20;99.90;;;;;;4042154;29;20109;-62
2022/09/30 00:32:32;;;;;;;5.38;3.80;;;10.20;99.90;;;;;;4041927;29;20141;-62
2022/09/30 00:34:33;;;;;;;5.80;4.03;;;10.20;99.90;;;;;;4045097;29;20032;-62
2022/09/30 00:36:42;;;;;;;7.28;4.68;;;10.20;99.90;;;;;;4044455;29;20520;-63
2022/09/30 00:38:43;;;;;;;8.20;4.97;;;10.20;99.90;;;;;;4048025;29;20047;-62
2022/09/30 00:40:44;;;;;;;5.95;4.55;;;10.10;99.90;;;;;;4044049;29;20493;-62
2022/09/30 00:42:45;;;;;;;5.70;4.07;;;10.20;99.90;;;;;;4048016;29;20482;-62
2022/09/30 00:44:53;;;;;;;6.45;4.22;;;10.20;99.90;;;;;;4064034;29;20036;-62
2022/09/30 00:46:55;;;;;;;6.07;4.05;;;10.20;99.90;;;;;;4041438;29;20041;-63
2022/09/30 00:48:57;;;;;;;5.83;4.17;;;10.10;99.90;;;;;;4045922;29;20041;-62
2022/09/30 00:50:59;;;;;;;6.32;3.90;;;10.10;99.90;;;;;;4042687;29;20269;-62
2022/09/30 00:53:11;;;;;;;4.97;3.83;;;10.10;99.90;;;;;;4040996;29;20060;-62
2022/09/30 00:55:37;;;;;;;5.20;3.83;;;10.10;99.90;;;;;;4044583;29;20463;-62
2022/09/30 00:57:37;;;;;;;7.38;4.65;;;10.00;99.90;;;;;;4039721;29;20048;-62
2022/09/30 00:59:46;;;;;;;5.65;4.00;;;10.00;99.90;;;;;;4041217;29;20045;-62
2022/09/30 01:01:48;;;;;;;7.18;4.25;;;9.90;99.90;;;;;;4044916;29;20488;-62
2022/09/30 01:04:00;;;;;;;6.82;4.43;;;10.00;99.90;;;;;;4047926;29;20106;-62
2022/09/30 01:06:01;;;;;;;6.18;4.47;;;10.00;99.90;;;;;;4045599;29;20131;-62
2022/09/30 01:08:04;;;;;;;7.93;5.07;;;10.00;99.90;;;;;;4040248;29;20424;-62
2022/09/30 01:10:05;;;;;;;6.18;4.10;;;10.00;99.90;;;;;;4041547;29;20033;-63
2022/09/30 01:12:11;;;;;;;8.65;4.82;;;10.00;99.90;;;;;;4042775;29;20059;-62
2022/09/30 01:14:16;;;;;;;7.53;4.97;;;10.00;99.90;;;;;;4043621;29;20033;-62
2022/09/30 01:16:55;;;;;;;8.45;4.65;;;10.00;99.90;;;;;;4042905;29;20092;-62
2022/09/30 01:19:17;;;;;;;9.88;4.80;;;10.00;99.90;;;;;;4039131;29;20029;-62
2022/09/30 01:21:45;;;;;;;7.93;4.68;;;10.00;99.90;;;;;;4042853;29;20060;-62
2022/09/30 01:24:08;;;;;;;9.85;5.13;;;10.00;99.90;;;;;;4038187;29;20032;-61
2022/09/30 01:26:44;;;;;;;7.78;4.72;;;10.00;99.90;;;;;;4041704;29;20549;-62
2022/09/30 01:29:17;;;;;;;9.75;5.38;;;10.10;99.90;;;;;;4042671;29;20024;-62
2022/09/30 01:31:51;;;;;;;11.63;6.22;;;10.10;99.90;;;;;;4040244;29;20516;-62
2022/09/30 01:34:21;;;;;;;8.75;4.95;;;10.10;99.90;;;;;;4038048;29;20089;-62
2022/09/30 01:36:27;;;;;;;8.55;4.90;;;10.00;99.90;;;;;;4037468;29;20037;-62
2022/09/30 01:39:00;;;;;;;9.05;4.82;;;10.10;99.90;;;;;;4043177;29;20532;-62
2022/09/30 01:41:06;;;;;;;8.27;4.78;;;10.00;99.90;;;;;;4035709;29;20033;-62
2022/09/30 01:44:02;;;;;;;7.38;4.85;;;10.10;99.90;;;;;;4037400;29;20097;-62
2022/09/30 01:46:34;;;;;;;9.25;4.78;;;10.00;99.90;;;;;;4048694;29;20029;-62
2022/09/30 01:48:41;;;;;;;6.53;4.50;;;10.00;99.90;;;;;;4044810;29;20128;-63
2022/09/30 01:50:55;;;;;;;7.32;4.80;;;10.00;99.90;;;;;;4043744;29;20040;-62
2022/09/30 01:53:25;;;;;;;6.70;4.40;;;10.00;99.90;;;;;;4042514;29;20049;-63
2022/09/30 01:55:39;;;;;;;7.25;5.05;;;10.00;99.90;;;;;;4039094;29;20148;-62
2022/09/30 01:57:57;;;;;;;6.63;4.40;;;10.00;99.90;;;;;;4038155;29;20048;-62
2022/09/30 02:00:09;;;;;;;7.95;4.97;;;10.00;99.90;;;;;;4039646;29;20484;-62
2022/09/30 02:02:18;;;;;;;8.57;5.27;;;9.90;99.90;;;;;;4040509;29;20041;-62
2022/09/30 02:04:25;;;;;;;6.72;4.55;;;9.90;99.90;;;;;;4041695;29;20457;-62
2022/09/30 02:06:34;;;;;;;12.60;4.90;;;9.90;99.90;;;;;;4039311;29;20039;-63
2022/09/30 02:08:55;;;;;;;8.93;5.30;;;9.90;99.90;;;;;;4041336;29;20053;-63
2022/09/30 02:11:05;;;;;;;9.15;4.80;;;9.90;99.90;;;;;;4040576;29;20036;-63
2022/09/30 02:13:24;;;;;;;8.63;5.10;;;9.80;99.90;;;;;;4040345;29;20075;-62
2022/09/30 02:15:31;;;;;;;8.13;4.93;;;9.80;99.90;;;;;;4040402;29;20051;-62
2022/09/30 02:17:39;;;;;;;7.30;4.95;;;9.80;99.90;;;;;;4057151;29;20047;-62
2022/09/30 02:19:45;;;;;;;7.22;4.63;;;9.80;99.90;;;;;;4039796;29;20047;-62
2022/09/30 02:21:57;;;;;;;6.03;4.35;;;9.80;99.90;;;;;;4040725;29;20548;-62
2022/09/30 02:24:04;;;;;;;6.97;4.40;;;9.70;99.90;;;;;;4036913;29;20410;-62
2022/09/30 02:26:07;;;;;;;7.80;5.05;;;9.70;99.90;;;;;;4041273;29;20050;-63
2022/09/30 02:28:09;;;;;;;;;;;9.70;99.90;;;;;;4041878;29;20068;-62
2022/09/30 02:30:12;;;;;;;6.97;4.90;;;9.70;99.90;;;;;;4040568;29;19911;-63
2022/09/30 02:32:21;;;;;;;8.57;5.35;;;9.60;99.90;;;;;;4040097;29;20033;-62
2022/09/30 02:34:33;;;;;;;9.85;4.55;;;9.60;99.90;;;;;;4041839;29;20041;-62
2022/09/30 02:36:47;;;;;;;8.50;5.30;;;9.60;99.90;;;;;;4038468;29;20040;-64
2022/09/30 02:38:53;;;;;;;6.57;4.55;;;9.60;99.90;;;;;;4040621;29;20033;-62
2022/09/30 02:41:07;;;;;;;9.82;5.57;;;9.60;99.90;;;;;;4039415;29;20032;-62
2022/09/30 02:43:09;;;;;;;9.05;4.60;;;9.60;99.90;;;;;;4043867;29;20040;-62
2022/09/30 02:45:15;;;;;;;9.55;5.28;;;9.60;99.90;;;;;;4039878;29;20143;-62
2022/09/30 02:47:27;;;;;;;9.82;5.18;;;9.50;99.90;;;;;;4043088;29;20043;-62
2022/09/30 02:49:38;;;;;;;7.67;4.57;;;9.50;99.90;;;;;;4039542;29;20097;-62
2022/09/30 02:51:52;;;;;;;10.95;4.82;;;9.50;99.90;;;;;;4040305;29;20045;-61
2022/09/30 02:54:01;;;;;;;7.85;4.95;;;9.60;99.90;;;;;;4040077;29;20278;-62
2022/09/30 02:56:14;;;;;;;7.47;5.20;;;9.60;99.90;;;;;;4040284;29;20400;-62
2022/09/30 02:58:20;;;;;;;7.55;4.50;;;9.60;99.90;;;;;;4040277;29;20031;-62
2022/09/30 03:00:20;;;;;;;7.65;4.93;;;9.60;99.90;;;;;;4040197;29;20442;-62
2022/09/30 03:02:21;;;;;;;7.80;5.35;;;9.60;99.90;;;;;;4041832;29;20128;-62
2022/09/30 03:04:26;;;;;;;7.20;5.22;;;9.60;99.90;;;;;;4041310;29;20056;-62
2022/09/30 03:06:27;;;;;;;9.73;5.25;;;9.70;99.90;;;;;;4040286;29;20045;-62
2022/09/30 03:08:28;;;;;;;7.53;5.00;;;9.60;99.90;;;;;;4046061;29;20048;-62
2022/09/30 03:10:29;;;;;;;6.93;5.00;;;9.60;99.90;;;;;;4035035;29;20037;-62
2022/09/30 03:12:41;;;;;;;6.38;4.68;;;9.60;99.90;;;;;;4046243;29;20041;-62
2022/09/30 03:15:01;;;;;;;9.23;5.17;;;9.60;99.90;;;;;;4036532;29;20040;-62
2022/09/30 03:17:17;;;;;;;7.28;5.03;;;9.60;99.90;;;;;;4040208;29;21235;-62
2022/09/30 03:19:45;;;;;;;7.78;3.78;;;9.50;99.90;;;;;;4039965;29;20041;-61
2022/09/30 03:22:04;;;;;;;7.22;4.57;;;9.50;99.90;;;;;;4037622;29;20042;-62
2022/09/30 03:24:07;;;;;;;5.85;4.15;;;9.40;99.90;;;;;;4041754;29;20037;-64
2022/09/30 03:26:27;;;;;;;7.00;4.28;;;9.40;99.90;;;;;;4038210;29;20444;-62
2022/09/30 03:28:39;;;;;;;7.65;4.70;;;9.30;99.90;;;;;;4046782;29;20085;-62
2022/09/30 03:30:54;;;;;;;6.20;4.38;;;9.30;99.90;;;;;;4040853;29;20025;-62
2022/09/30 03:33:21;;;;;;;5.82;4.25;;;9.30;99.90;;;;;;4046550;29;20076;-62
2022/09/30 03:35:43;;;;;;;7.80;5.40;;;9.30;99.90;;;;;;4033950;29;20036;-62
2022/09/30 03:38:13;;;;;;;7.53;4.93;;;9.30;99.90;;;;;;4038343;29;20045;-62
2022/09/30 03:40:25;;;;;;;8.27;5.00;;;9.30;99.90;;;;;;4041962;29;20028;-62
2022/09/30 03:42:43;;;;;;;8.98;4.72;;;9.30;99.90;;;;;;4039494;29;20045;-62
2022/09/30 03:45:02;;;;;;;6.45;4.70;;;9.30;99.90;;;;;;4041651;29;20040;-62
2022/09/30 03:47:07;;;;;;;7.78;5.00;;;9.30;99.90;;;;;;4041881;29;20028;-62
2022/09/30 03:49:22;;;;;;;10.15;5.30;;;9.30;99.90;;;;;;4043874;29;20041;-62
2022/09/30 03:51:25;;;;;;;8.93;5.40;;;9.30;99.90;;;;;;4037377;29;20057;-61
2022/09/30 03:53:27;;;;;;;7.93;5.40;;;9.20;99.90;;;;;;4046243;29;20068;-62
2022/09/30 03:55:28;;;;;;;7.32;4.70;;;9.30;99.90;;;;;;4055377;29;20068;-63
2022/09/30 03:57:29;;;;;;;6.15;4.50;;;9.30;99.90;;;;;;4042106;29;20052;-62
2022/09/30 03:59:30;;;;;;;7.05;4.50;;;9.20;99.90;;;;;;4043871;29;20104;-62
2022/09/30 04:01:30;;;;;;;6.43;4.65;;;9.20;99.90;;;;;;4038486;29;20442;-62
2022/09/30 04:03:31;;;;;;;8.40;5.22;;;9.20;99.90;;;;;;4052944;29;20370;-62
2022/09/30 04:05:31;;;;;;;7.07;4.53;;;9.10;99.90;;;;;;4041239;29;20474;-62
2022/09/30 04:07:32;;;;;;;7.65;4.45;;;9.10;99.90;;;;;;4041808;29;20376;-62
2022/09/30 04:09:33;;;;;;;9.20;5.00;;;9.10;99.90;;;;;;4041085;29;20469;-62
2022/09/30 04:11:34;;;;;;;8.65;5.20;;;9.10;99.90;;;;;;4039644;29;20040;-62
2022/09/30 04:13:34;;;;;;;7.57;4.90;;;9.10;99.90;;;;;;4041046;29;20033;-62
2022/09/30 04:15:36;;;;;;;7.63;4.82;;;9.10;99.90;;;;;;4042966;29;20041;-64
2022/09/30 04:17:36;;;;;;;7.97;5.15;;;9.10;99.90;;;;;;4048324;29;20052;-62
2022/09/30 04:19:39;;;;;;;7.60;4.78;;;9.10;99.90;;;;;;4043999;29;20041;-62
2022/09/30 04:21:39;;;;;;;7.22;5.00;;;9.10;99.90;;;;;;4050948;29;20056;-61
2022/09/30 04:23:41;;;;;;;6.43;4.47;;;9.20;99.90;;;;;;4040909;29;20047;-62
2022/09/30 04:25:41;;;;;;;10.13;5.07;;;9.10;99.90;;;;;;4038377;29;20044;-61
2022/09/30 04:27:42;;;;;;;7.18;4.88;;;9.20;99.90;;;;;;4044037;29;20456;-62
2022/09/30 04:29:43;;;;;;;7.45;4.75;;;9.20;99.90;;;;;;4045199;29;20100;-61
2022/09/30 04:31:43;;;;;;;9.13;4.57;;;9.20;99.90;;;;;;4038665;29;20068;-61
2022/09/30 04:33:44;;;;;;;7.75;4.55;;;9.20;99.90;;;;;;4039034;29;20056;-62
2022/09/30 04:35:44;;;;;;;8.60;4.32;;;9.20;99.90;;;;;;4044348;29;20057;-62
2022/09/30 04:37:46;;;;;;;8.23;5.07;;;9.20;99.90;;;;;;4042983;29;20056;-62
2022/09/30 04:39:46;;;;;;;8.05;4.50;;;9.20;99.90;;;;;;4040861;29;20060;-62
2022/09/30 04:41:47;;;;;;;6.57;4.05;;;9.20;99.90;;;;;;4042559;29;20064;-62
2022/09/30 04:43:48;;;;;;;6.22;4.22;;;9.20;99.90;;;;;;4045974;29;20045;-62
2022/09/30 04:45:49;;;;;;;7.32;4.57;;;9.20;99.90;;;;;;4043938;29;20409;-62
2022/09/30 04:47:50;;;;;;;7.93;4.75;;;9.20;99.90;;;;;;4044909;29;20056;-62
2022/09/30 04:49:51;;;;;;;8.10;4.78;;;9.20;99.90;;;;;;4042270;29;20028;-62
2022/09/30 04:51:51;;;;;;;7.78;4.43;;;9.20;99.90;;;;;;4044419;29;20369;-62
2022/09/30 04:53:52;;;;;;;8.38;4.93;;;9.20;99.90;;;;;;4040421;29;20040;-62
2022/09/30 04:55:58;;;;;;;6.53;4.40;;;9.20;99.90;;;;;;4041963;29;20127;-62
2022/09/30 04:57:59;;;;;;;7.57;4.43;;;9.20;99.90;;;;;;4045004;29;20100;-63
2022/09/30 05:00:00;;;;;;;6.97;4.50;;;9.20;99.90;;;;;;4042045;29;20041;-62
2022/09/30 05:02:01;;;;;;;6.57;4.20;;;9.10;99.90;;;;;;4040377;29;20040;-63
2022/09/30 05:04:02;;;;;;;7.32;4.72;;;9.10;99.90;;;;;;4043149;29;20028;-62
2022/09/30 05:06:04;;;;;;;7.82;4.95;;;9.10;99.90;;;;;;4043113;29;20037;-62
2022/09/30 05:08:05;;;;;;;6.72;4.40;;;9.00;99.90;;;;;;4042584;29;20450;-62
2022/09/30 05:10:07;;;;;;;6.63;4.57;;;9.00;99.90;;;;;;4043479;29;20061;-62
2022/09/30 05:12:07;;;;;;;6.40;4.10;;;9.00;99.90;;;;;;4046585;29;20041;-63
2022/09/30 05:14:08;;;;;;;6.38;4.32;;;9.00;99.90;;;;;;4043529;29;20606;-62
2022/09/30 05:16:10;;;;;;;7.47;4.82;;;9.00;99.90;;;;;;4046589;29;20492;-62
2022/09/30 05:18:11;;;;;;;7.65;4.55;;;8.90;99.90;;;;;;4045754;29;20072;-62
2022/09/30 05:20:11;;;;;;;6.88;4.43;;;8.90;99.90;;;;;;4045266;29;20040;-64
2022/09/30 05:22:13;;;;;;;6.53;4.32;;;8.90;99.90;;;;;;4043828;29;20033;-62
2022/09/30 05:24:13;;;;;;;6.80;4.47;;;8.90;99.90;;;;;;4042958;29;20115;-62
2022/09/30 05:26:14;;;;;;;8.05;4.80;;;8.80;99.90;;;;;;4041699;29;20037;-65
2022/09/30 05:28:15;;;;;;;8.60;4.78;;;8.80;99.90;;;;;;4035313;29;20041;-65
2022/09/30 05:30:16;;;;;;;6.95;4.22;;;8.80;99.90;;;;;;4041424;29;20471;-65
2022/09/30 05:32:18;;;;;;;8.40;5.28;;;8.80;99.90;;;;;;4040947;29;20489;-65
2022/09/30 05:34:20;;;;;;;8.07;4.43;;;8.80;99.90;;;;;;4039671;29;20116;-65
2022/09/30 05:36:20;;;;;;;10.43;5.80;;;8.90;99.90;;;;;;4046373;29;20152;-65
2022/09/30 05:38:21;;;;;;;9.80;5.60;;;8.90;99.90;;;;;;4039353;29;20049;-65
2022/09/30 05:40:21;;;;;;;10.05;5.65;;;8.90;99.90;;;;;;4042544;29;20039;-65
2022/09/30 05:42:22;;;;;;;17.33;9.63;;;9.00;99.90;;;;;;4040231;29;20048;-65
2022/09/30 05:44:23;;;;;;;14.07;8.80;;;8.90;99.90;;;;;;4039502;29;20040;-65
2022/09/30 05:46:24;;;;;;;13.10;7.85;;;8.90;99.90;;;;;;4038402;29;20116;-65
2022/09/30 05:48:25;;;;;;;12.23;7.20;;;8.90;99.90;;;;;;4054293;29;24525;-65
2022/09/30 05:50:26;;;;;;;11.18;6.57;;;8.90;99.90;;;;;;4041621;29;20032;-65
2022/09/30 05:52:28;;;;;;;9.27;6.05;;;8.90;99.90;;;;;;4040108;29;20045;-65
2022/09/30 05:54:29;;;;;;;10.07;5.78;;;9.00;99.90;;;;;;4039134;29;20123;-65
2022/09/30 05:56:29;;;;;;;12.15;6.20;;;9.00;99.90;;;;;;4038678;29;20036;-65
2022/09/30 05:58:30;;;;;;;10.55;5.80;;;9.00;99.90;;;;;;4046312;29;20032;-65
2022/09/30 06:00:30;;;;;;;8.48;5.38;;;9.00;99.90;;;;;;4039136;29;20037;-65
2022/09/30 06:02:32;;;;;;;8.13;5.38;;;9.00;99.90;;;;;;4036614;29;20032;-66
2022/09/30 06:04:33;;;;;;;11.40;5.90;;;9.00;99.90;;;;;;4052601;29;20119;-65
2022/09/30 06:06:35;;;;;;;10.07;5.35;;;9.00;99.90;;;;;;4036709;29;20400;-65
2022/09/30 06:08:36;;;;;;;11.60;5.43;;;9.00;99.90;;;;;;4038588;29;20041;-66
2022/09/30 06:10:40;;;;;;;11.05;5.47;;;9.00;99.90;;;;;;4037622;29;20060;-65
2022/09/30 06:12:41;;;;;;;8.63;4.90;;;9.00;99.90;;;;;;4052427;29;20044;-65
2022/09/30 06:14:41;;;;;;;8.00;5.13;;;9.10;99.90;;;;;;4039709;29;20045;-65
2022/09/30 06:16:42;;;;;;;9.20;5.28;;;9.10;99.90;;;;;;4037362;29;20041;-65
2022/09/30 06:18:43;;;;;;;8.18;5.13;;;9.00;99.90;;;;;;4052716;29;20067;-65
2022/09/30 06:20:44;;;;;;;9.25;5.65;;;9.00;99.90;;;;;;4037752;29;20070;-65
2022/09/30 06:22:44;;;;;;;8.43;5.20;;;9.00;99.90;;;;;;4036606;29;20056;-65
2022/09/30 06:24:45;;;;;;;10.57;5.22;;;9.00;99.90;;;;;;4039761;29;20964;-65
2022/09/30 06:26:45;;;;;;;12.13;6.10;;;9.00;99.90;;;;;;4038711;29;20040;-65
2022/09/30 06:28:46;;;;;;;9.57;5.65;;;9.00;99.90;;;;;;4036239;29;20492;-65
2022/09/30 06:30:47;;;;;;;10.45;4.88;;;9.00;99.90;;;;;;4037862;29;20108;-64
2022/09/30 06:32:48;;;;;;;12.85;5.60;;;9.10;99.90;;;;;;4038689;29;21593;-65
2022/09/30 06:34:48;;;;;;;12.07;5.93;;;9.10;99.90;;;;;;4039172;29;20080;-65
2022/09/30 06:36:49;;;;;;;11.35;6.22;;;9.10;99.90;;;;;;4037593;29;20093;-65
2022/09/30 06:38:51;;;;;;;8.38;5.32;;;9.10;99.90;;;;;;4036538;29;20025;-65
2022/09/30 06:40:52;;;;;;;10.27;5.47;;;9.20;99.90;;;;;;4037135;29;20476;-65
2022/09/30 06:42:58;;;;;;;12.18;5.90;;;9.20;99.90;;;;;;4035854;29;20051;-65
2022/09/30 06:44:59;;;;;;;8.40;5.38;;;9.20;99.90;;;;;;4036868;29;20048;-65
2022/09/30 06:46:59;;;;;;;12.73;6.03;;;9.30;99.90;;;;;;4032624;29;20041;-65
2022/09/30 06:49:00;;;;;;;9.38;5.30;;;9.30;99.90;;;;;;4037379;29;20112;-65
2022/09/30 06:51:01;;;;;;;10.30;6.20;;;9.30;99.90;;;;;;4037751;29;20341;-66
2022/09/30 06:53:07;;;;;;;8.63;6.10;;;9.40;99.90;;;;;;4036100;29;20060;-66
2022/09/30 06:55:08;;;;;;;12.07;5.50;;;9.50;99.90;;;;;;4036777;29;20445;-66
2022/09/30 06:57:08;;;;;;;11.13;5.95;;;9.50;99.90;;;;;;4034984;29;20132;-65
2022/09/30 06:59:10;;;;;;;8.63;5.18;;;9.50;99.90;;;;;;4038004;29;20508;-65
2022/09/30 07:01:13;;;;;;;10.88;5.53;;;9.50;99.90;;;;;;4051160;29;20096;-65
2022/09/30 07:03:24;;;;;;;8.27;6.03;;;9.60;99.90;;;;;;4037285;29;20388;-65
2022/09/30 07:05:25;;;;;;;10.05;6.05;;;9.60;99.90;;;;;;4037117;29;20513;-65
2022/09/30 07:07:26;;;;;;;12.65;5.97;;;9.60;99.90;;;;;;4034007;29;20040;-65
2022/09/30 07:09:26;;;;;;;11.55;6.53;;;9.70;99.90;;;;;;4035126;29;20037;-65
2022/09/30 07:11:27;;;;;;;11.93;6.90;;;9.70;99.90;;;;;;4035947;29;20513;-66
2022/09/30 07:13:27;;;;;;;11.68;6.93;;;9.80;99.90;;;;;;4034251;29;20072;-66
2022/09/30 07:15:28;;;;;;;9.45;5.82;;;9.80;99.90;;;;;;4032637;29;20108;-65
2022/09/30 07:17:29;;;;;;;12.70;6.75;;;9.90;99.90;;;;;;4038312;29;20434;-66
2022/09/30 07:19:30;;;;;;;11.60;7.10;;;9.90;99.90;;;;;;4036898;29;20043;-66
2022/09/30 07:21:31;;;;;;;9.93;6.20;;;10.00;99.90;;;;;;4044373;29;20039;-65
2022/09/30 07:23:31;;;;;;;9.43;6.53;;;10.10;99.90;;;;;;4038045;29;20472;-65
2022/09/30 07:25:32;;;;;;;10.20;6.13;;;10.20;99.90;;;;;;4039275;29;20381;-66
2022/09/30 07:27:33;;;;;;;11.30;6.53;;;10.50;99.90;;;;;;4039730;29;20047;-65
2022/09/30 07:29:33;;;;;;;10.23;6.43;;;10.70;99.90;;;;;;4039341;29;20065;-66
2022/09/30 07:31:34;;;;;;;11.63;7.18;;;10.90;99.90;;;;;;4040925;29;20037;-65
2022/09/30 07:33:34;;;;;;;13.63;6.63;;;11.10;99.90;;;;;;4039435;29;20036;-66
2022/09/30 07:35:36;;;;;;;10.68;6.70;;;11.30;99.90;;;;;;4040021;29;20041;-66
2022/09/30 07:37:37;;;;;;;19.52;7.38;;;11.60;99.90;;;;;;4039654;29;20082;-66
2022/09/30 07:39:38;;;;;;;14.20;6.97;;;11.70;99.90;;;;;;4040486;29;20049;-66
2022/09/30 07:41:39;;;;;;;12.18;6.97;;;11.90;99.90;;;;;;4038407;29;20048;-66
2022/09/30 07:43:43;;;;;;;12.90;7.90;;;12.20;99.90;;;;;;4039832;29;20048;-66
2022/09/30 07:45:44;;;;;;;16.90;7.80;;;12.40;99.90;;;;;;4039984;29;20044;-66
2022/09/30 07:47:45;;;;;;;15.52;7.70;;;12.60;99.90;;;;;;4041616;29;20517;-66
2022/09/30 07:49:46;;;;;;;15.18;8.52;;;12.80;99.90;;;;;;4039438;29;20080;-66
2022/09/30 07:51:47;;;;;;;16.35;8.60;;;13.00;99.90;;;;;;4039262;29;20072;-66
2022/09/30 07:54:18;;;;;;;14.82;8.35;;;13.20;99.90;;;;;;4040456;29;20065;-66
2022/09/30 07:56:19;;;;;;;16.77;7.70;;;13.40;99.90;;;;;;4039777;29;20053;-66
2022/09/30 07:58:20;;;;;;;17.30;8.13;;;13.60;99.90;;;;;;4040888;29;20093;-67
2022/09/30 08:00:21;;;;;;;13.52;8.60;;;13.80;99.90;;;;;;4037806;29;20044;-67
2022/09/30 08:02:23;;;;;;;12.70;7.75;;;14.00;99.90;;;;;;4038885;29;20067;-67
2022/09/30 08:04:25;;;;;;;10.95;6.93;;;14.20;99.90;;;;;;4039099;29;20056;-68
2022/09/30 08:06:28;;;;;;;10.90;7.47;;;14.40;99.90;;;;;;4047415;29;20068;-69
2022/09/30 08:08:29;;;;;;;;;;;14.50;99.90;;;;;;4039462;29;20040;-68
2022/09/30 08:10:33;;;;;;;11.57;7.55;;;14.70;99.90;;;;;;4038268;29;20097;-68
2022/09/30 08:12:36;;;;;;;10.05;7.28;;;14.70;99.90;;;;;;4037401;29;20406;-68
2022/09/30 08:14:36;;;;;;;9.30;6.82;;;14.90;99.90;;;;;;4039270;29;20044;-69
2022/09/30 08:16:37;;;;;;;9.88;6.80;;;14.90;99.90;;;;;;4039233;29;20036;-68
2022/09/30 08:18:37;;;;;;;14.65;8.63;;;15.00;99.90;;;;;;4039359;29;20055;-69
2022/09/30 08:20:38;;;;;;;11.43;7.80;;;14.90;99.90;;;;;;4037968;29;20561;-68
2022/09/30 08:22:38;;;;;;;14.38;8.15;;;15.00;99.90;;;;;;4039008;29;20481;-68
2022/09/30 08:24:39;;;;;;;9.05;7.03;;;14.90;99.90;;;;;;4039564;29;20135;-68
2022/09/30 08:26:40;;;;;;;12.30;7.97;;;15.00;99.90;;;;;;4037201;29;20038;-68
2022/09/30 08:28:45;;;;;;;9.70;7.88;;;15.00;99.90;;;;;;4041091;29;20072;-68
2022/09/30 08:30:46;;;;;;;12.98;8.48;;;15.00;99.90;;;;;;4038370;29;20496;-68
2022/09/30 08:32:46;;;;;;;12.13;8.30;;;14.90;99.90;;;;;;4038410;29;20070;-68
2022/09/30 08:34:47;;;;;;;15.25;9.40;;;15.00;99.90;;;;;;4039051;29;20036;-67
2022/09/30 08:36:48;;;;;;;16.90;10.23;;;14.90;99.90;;;;;;4040911;29;20433;-68
2022/09/30 08:38:48;;;;;;;12.95;9.52;;;14.80;99.90;;;;;;4039022;29;20392;-68
2022/09/30 08:41:12;;;;;;;11.95;8.48;;;14.80;99.90;;;;;;4038215;29;20177;-68
2022/09/30 08:43:34;;;;;;;13.48;8.15;;;14.80;99.90;;;;;;4045259;29;20075;-68
2022/09/30 08:45:45;;;;;;;12.82;9.52;;;14.90;99.90;;;;;;4037555;29;20481;-68
2022/09/30 08:48:01;;;;;;;14.73;11.18;;;14.90;99.90;;;;;;4039210;29;20501;-68
2022/09/30 08:50:18;;;;;;;17.40;11.00;;;14.90;99.90;;;;;;4038911;29;20028;-68
2022/09/30 08:52:25;;;;;;;16.30;10.88;;;14.80;99.90;;;;;;4039073;29;20125;-68
2022/09/30 08:54:31;;;;;;;17.25;11.57;;;14.90;99.90;;;;;;4038542;29;20500;-69
2022/09/30 08:56:33;;;;;;;17.60;10.73;;;14.90;99.90;;;;;;4036407;29;20036;-68
2022/09/30 08:58:40;;;;;;;17.50;11.97;;;14.90;99.90;;;;;;4037684;29;20043;-68
2022/09/30 09:00:41;;;;;;;14.27;9.70;;;14.90;99.90;;;;;;4037312;29;21330;-68
2022/09/30 09:02:48;;;;;;;13.27;10.02;;;14.90;99.90;;;;;;4038938;29;20036;-67
2022/09/30 09:04:53;;;;;;;17.20;11.63;;;15.10;99.90;;;;;;4040273;29;20108;-68
2022/09/30 09:07:01;;;;;;;14.55;10.98;;;15.10;99.90;;;;;;4040497;29;20051;-67
2022/09/30 09:09:17;;;;;;;17.25;11.70;;;15.10;99.90;;;;;;4039439;29;20033;-68
2022/09/30 09:11:39;;;;;;;17.45;11.40;;;15.10;99.90;;;;;;4039101;29;20056;-68
2022/09/30 09:14:05;;;;;;;15.65;11.15;;;15.20;99.90;;;;;;4037504;29;20036;-67
2022/09/30 09:16:14;;;;;;;15.20;11.00;;;15.20;99.90;;;;;;4038657;29;20397;-68
2022/09/30 09:18:33;;;;;;;14.65;10.52;;;15.20;99.90;;;;;;4039469;29;20128;-68
2022/09/30 09:20:41;;;;;;;12.15;9.30;;;15.30;99.90;;;;;;4037560;29;20041;-67
2022/09/30 09:22:44;;;;;;;12.18;9.32;;;15.30;99.90;;;;;;4039156;29;20044;-68
2022/09/30 09:24:49;;;;;;;15.45;10.43;;;15.30;99.90;;;;;;4039262;29;20041;-67
2022/09/30 09:26:53;;;;;;;13.88;10.65;;;15.40;99.90;;;;;;4037320;29;20045;-67
2022/09/30 09:29:31;;;;;;;17.25;12.20;;;15.40;99.90;;;;;;4039816;29;20036;-68
2022/09/30 09:31:31;;;;;;;18.40;12.48;;;15.40;99.90;;;;;;4038162;29;20507;-67
2022/09/30 09:33:38;;;;;;;15.68;11.43;;;15.40;99.90;;;;;;4037059;29;20099;-68
2022/09/30 09:36:05;;;;;;;19.20;14.15;;;15.40;99.90;;;;;;4038968;29;20048;-67
2022/09/30 09:38:34;;;;;;;14.48;10.65;;;15.30;99.90;;;;;;4037150;29;20045;-67
2022/09/30 09:40:40;;;;;;;17.35;12.18;;;15.40;99.90;;;;;;4051026;29;20063;-67
2022/09/30 09:42:56;;;;;;;15.15;11.43;;;15.50;99.90;;;;;;4039157;29;20354;-68
2022/09/30 09:45:01;;;;;;;21.23;12.52;;;15.50;99.90;;;;;;4036146;29;21610;-71
2022/09/30 09:47:13;;;;;;;15.68;10.93;;;15.50;99.90;;;;;;4039971;29;20523;-68
2022/09/30 09:49:19;;;;;;;14.50;11.48;;;15.50;99.90;;;;;;4037284;29;20064;-68
2022/09/30 09:51:35;;;;;;;14.30;10.88;;;15.60;99.90;;;;;;4052637;29;20064;-68
2022/09/30 09:53:47;;;;;;;18.27;11.43;;;15.60;99.90;;;;;;4037599;29;20044;-67
2022/09/30 09:55:53;;;;;;;14.93;10.48;;;15.60;99.90;;;;;;4036295;29;20045;-67
2022/09/30 09:58:16;;;;;;;12.73;9.20;;;15.70;99.90;;;;;;4038659;29;20446;-67
2022/09/30 10:01:10;;;;;;;13.45;9.85;;;15.70;99.90;;;;;;4043482;29;20547;-68
2022/09/30 10:03:17;;;;;;;13.23;9.18;;;15.60;99.90;;;;;;4038733;29;20060;-67
2022/09/30 10:05:25;;;;;;;15.40;11.13;;;15.70;99.90;;;;;;4052734;29;20409;-67
2022/09/30 10:07:32;;;;;;;17.38;12.52;;;15.70;99.90;;;;;;4037458;29;20041;-67
2022/09/30 10:09:40;;;;;;;15.70;11.73;;;15.70;99.90;;;;;;4038069;29;20040;-68
2022/09/30 10:11:41;;;;;;;13.02;9.38;;;15.80;99.90;;;;;;4035918;29;20172;-67
2022/09/30 10:13:45;;;;;;;14.65;11.00;;;15.80;99.90;;;;;;4035599;29;20698;-68
2022/09/30 10:15:47;;;;;;;12.73;9.85;;;15.80;99.90;;;;;;4037379;29;20144;-68
2022/09/30 10:17:54;;;;;;;16.27;10.57;;;15.90;99.90;;;;;;4039234;29;20056;-68
2022/09/30 10:20:05;;;;;;;15.13;9.10;;;15.90;99.90;;;;;;4035898;29;20270;-67
2022/09/30 10:22:08;;;;;;;15.32;9.77;;;16.00;99.90;;;;;;4035474;29;20040;-67
2022/09/30 10:24:25;;;;;;;12.35;9.95;;;16.00;99.90;;;;;;4039589;29;20049;-68
2022/09/30 10:26:27;;;;;;;17.80;12.65;;;16.10;99.90;;;;;;4037763;29;20511;-68
2022/09/30 10:28:31;;;;;;;15.40;9.80;;;16.00;99.90;;;;;;4037447;29;20044;-69
2022/09/30 10:30:42;;;;;;;11.25;8.32;;;16.10;99.90;;;;;;4038913;29;20059;-68
2022/09/30 10:32:42;;;;;;;13.98;9.52;;;16.10;99.90;;;;;;4036051;29;20045;-67
2022/09/30 10:34:43;;;;;;;10.35;8.65;;;16.20;99.90;;;;;;4036455;29;20488;-68
2022/09/30 10:36:45;;;;;;;13.43;9.50;;;16.30;99.90;;;;;;4037214;29;20072;-67
2022/09/30 10:38:57;;;;;;;12.25;9.77;;;16.30;99.90;;;;;;4038551;29;20456;-67
2022/09/30 10:40:59;;;;;;;16.80;10.75;;;16.40;99.90;;;;;;4053312;29;20111;-68
2022/09/30 10:42:59;;;;;;;13.18;9.77;;;16.40;99.90;;;;;;4050208;29;20417;-68
2022/09/30 10:45:08;;;;;;;12.27;9.65;;;16.40;99.90;;;;;;4035340;29;20029;-68
2022/09/30 10:47:14;;;;;;;13.10;9.32;;;16.50;99.90;;;;;;4036242;29;20631;-68
2022/09/30 10:49:50;;;;;;;11.95;8.70;;;16.50;99.90;;;;;;4038057;29;20036;-67
2022/09/30 10:51:51;;;;;;;13.60;10.75;;;16.60;99.90;;;;;;4025316;29;20029;-67
2022/09/30 10:53:52;;;;;;;12.73;9.85;;;16.60;99.90;;;;;;4033232;29;20123;-68
2022/09/30 10:55:53;;;;;;;11.48;8.82;;;16.60;99.90;;;;;;4036531;29;20041;-68
2022/09/30 10:57:57;;;;;;;12.50;8.85;;;16.60;99.90;;;;;;4041934;29;20063;-68